WXM80 ListenWXM80 Stop

You find our weather info also at:

UK Metoffice

WeatherCloud

Weather Underground

Northeastern Weather Network

AWEKAS

Citizen Weather Observer Program (CWOP)

HAMweather, WeatherForYou, PWS Weather


Weather Underground History page Text

Daily Summary for January 17, 2018 Units:  Both    English   Metric
« Previous Day
Next Day »
Daily Weekly Monthly Yearly Custom
  High: Low: Average:
Temperature: TemperatureF °F /  -17.8 °C 25.3 °F /  -3.7 °C 32.3 °F /  0.2 °C
Dew Point: DewpointF °F /  -17.8 °C 20.3 °F /  -6.5 °C 30.5 °F /  -0.8 °C
Humidity: Humidity % 80 % 93 %
Wind Speed: WindSpeedMPH mph /  0 km/h - 3.1 mph /  5 km/h
Wind Gust: WindSpeedGustMPH mph /  0 km/h - -
Wind:- - SW
Pressure: PressureIn in /  0 hPa 29.89 in /  1012.1 hPa -
Precipitation: 0.04 in /  1.02 mm    
Historical Graphs
 
 
Tabular Data for January 17, 2018
Time Temperature Dew Point Pressure Wind Wind Speed Wind Gust Humidity Rainfall Rate (Hourly)
TemperatureF °F /  -17.8 °C DewpointF °F /  -17.8 °C PressureIn in /  0 hPa Calm     Humidity % HourlyPrecipIn in /  0 mm
00:07 31.8 °F /  -0.1 °C 30.3 °F /  -0.9 °C 30.08 in /  1018.5 hPa Calm     94 % 0.00 in /  0 mm
00:26 31.9 °F /  -0.1 °C 30.4 °F /  -0.9 °C 30.08 in /  1018.5 hPa Calm     94 % 0.00 in /  0 mm
00:33 32.0 °F /  0 °C 30.7 °F /  -0.7 °C 30.08 in /  1018.5 hPa Calm     95 % 0.00 in /  0 mm
00:42 32.1 °F /  0.1 °C 30.8 °F /  -0.7 °C 30.07 in /  1018.2 hPa Calm     95 % 0.00 in /  0 mm
00:47 32.3 °F /  0.2 °C 31.0 °F /  -0.6 °C 30.07 in /  1018.2 hPa Calm     95 % 0.00 in /  0 mm
01:01 32.6 °F /  0.3 °C 31.3 °F /  -0.4 °C 30.07 in /  1018.2 hPa Calm     95 % 0.00 in /  0 mm
01:07 32.6 °F /  0.3 °C 31.3 °F /  -0.4 °C 30.07 in /  1018.2 hPa Calm     95 % 0.00 in /  0 mm
01:12 32.7 °F /  0.4 °C 31.4 °F /  -0.3 °C 30.06 in /  1017.8 hPa Calm     95 % 0.00 in /  0 mm
01:25 32.8 °F /  0.4 °C 31.5 °F /  -0.3 °C 30.05 in /  1017.5 hPa Calm     95 % 0.00 in /  0 mm
01:40 32.9 °F /  0.5 °C 31.6 °F /  -0.2 °C 30.05 in /  1017.5 hPa Calm     95 % 0.00 in /  0 mm
01:47 33.0 °F /  0.6 °C 31.7 °F /  -0.2 °C 30.05 in /  1017.5 hPa Calm     95 % 0.00 in /  0 mm
01:54 33.3 °F /  0.7 °C 32.0 °F /  0 °C 30.06 in /  1017.8 hPa Calm     95 % 0.00 in /  0 mm
02:01 33.4 °F /  0.8 °C 32.1 °F /  0.1 °C 30.05 in /  1017.5 hPa Calm     95 % 0.00 in /  0 mm
02:06 33.5 °F /  0.8 °C 32.5 °F /  0.3 °C 30.05 in /  1017.5 hPa Calm     96 % 0.00 in /  0 mm
02:26 33.8 °F /  1 °C 32.8 °F /  0.4 °C 30.05 in /  1017.5 hPa Calm     96 % 0.00 in /  0 mm
02:34 34.0 °F /  1.1 °C 33.0 °F /  0.6 °C 30.05 in /  1017.5 hPa Calm     96 % 0.00 in /  0 mm
02:44 34.1 °F /  1.2 °C 32.8 °F /  0.4 °C 30.05 in /  1017.5 hPa Calm     95 % 0.00 in /  0 mm
02:49 34.2 °F /  1.2 °C 32.9 °F /  0.5 °C 30.05 in /  1017.5 hPa ENE 0.6 mph /  1 km/h 2.3 mph /  3.7 km/h 95 % 0.00 in /  0 mm
02:54 34.2 °F /  1.2 °C 33.2 °F /  0.7 °C 30.05 in /  1017.5 hPa ENE 0.5 mph /  0.8 km/h 3.5 mph /  5.6 km/h 96 % 0.00 in /  0 mm
03:10 34.3 °F /  1.3 °C 33.3 °F /  0.7 °C 30.05 in /  1017.5 hPa Calm     96 % 0.00 in /  0 mm
03:20 34.4 °F /  1.3 °C 33.1 °F /  0.6 °C 30.04 in /  1017.2 hPa Calm   1.0 mph /  1.6 km/h 95 % 0.00 in /  0 mm
03:29 34.5 °F /  1.4 °C 33.5 °F /  0.8 °C 30.04 in /  1017.2 hPa Calm     96 % 0.00 in /  0 mm
03:36 34.6 °F /  1.4 °C 33.6 °F /  0.9 °C 30.03 in /  1016.8 hPa ENE 0.1 mph /  0.2 km/h 1.2 mph /  1.9 km/h 96 % 0.00 in /  0 mm
03:42 34.7 °F /  1.5 °C 33.7 °F /  0.9 °C 30.03 in /  1016.8 hPa ENE 1.4 mph /  2.3 km/h 3.5 mph /  5.6 km/h 96 % 0.00 in /  0 mm
03:54 35.0 °F /  1.7 °C 34.0 °F /  1.1 °C 30.02 in /  1016.5 hPa ENE 2.0 mph /  3.2 km/h 3.5 mph /  5.6 km/h 96 % 0.00 in /  0 mm
04:01 35.1 °F /  1.7 °C 34.1 °F /  1.2 °C 30.02 in /  1016.5 hPa Calm     96 % 0.00 in /  0 mm
04:08 35.1 °F /  1.7 °C 34.1 °F /  1.2 °C 30.02 in /  1016.5 hPa NE 0.5 mph /  0.8 km/h 2.0 mph /  3.2 km/h 96 % 0.00 in /  0 mm
04:16 35.2 °F /  1.8 °C 34.2 °F /  1.2 °C 30.01 in /  1016.1 hPa East 2.7 mph /  4.3 km/h 4.6 mph /  7.4 km/h 96 % 0.00 in /  0 mm
04:21 35.2 °F /  1.8 °C 34.2 °F /  1.2 °C 30.01 in /  1016.1 hPa East 2.6 mph /  4.2 km/h 3.5 mph /  5.6 km/h 96 % 0.00 in /  0 mm
04:36 35.2 °F /  1.8 °C 34.2 °F /  1.2 °C 30.02 in /  1016.5 hPa ENE 1.9 mph /  3.1 km/h 3.5 mph /  5.6 km/h 96 % 0.00 in /  0 mm
04:47 35.3 °F /  1.8 °C 34.3 °F /  1.3 °C 30.01 in /  1016.1 hPa ENE 2.3 mph /  3.7 km/h 4.6 mph /  7.4 km/h 96 % 0.00 in /  0 mm
04:53 35.4 °F /  1.9 °C 34.4 °F /  1.3 °C 30.01 in /  1016.1 hPa NE 0.6 mph /  1 km/h 2.3 mph /  3.7 km/h 96 % 0.00 in /  0 mm
05:07 35.4 °F /  1.9 °C 34.4 °F /  1.3 °C 30.01 in /  1016.1 hPa ENE 3.1 mph /  5 km/h 5.0 mph /  8 km/h 96 % 0.00 in /  0 mm
05:17 35.4 °F /  1.9 °C 34.4 °F /  1.3 °C 30.01 in /  1016.1 hPa ENE 1.7 mph /  2.7 km/h 3.5 mph /  5.6 km/h 96 % 0.00 in /  0 mm
05:29 35.3 °F /  1.8 °C 34.5 °F /  1.4 °C 30.01 in /  1016.1 hPa ENE 0.3 mph /  0.5 km/h 2.3 mph /  3.7 km/h 97 % 0.00 in /  0 mm
05:47 35.3 °F /  1.8 °C 34.5 °F /  1.4 °C 30.01 in /  1016.1 hPa ENE 0.6 mph /  1 km/h 2.3 mph /  3.7 km/h 97 % 0.00 in /  0 mm
05:54 35.3 °F /  1.8 °C 34.5 °F /  1.4 °C 30.01 in /  1016.1 hPa ENE 0.5 mph /  0.8 km/h 2.3 mph /  3.7 km/h 97 % 0.00 in /  0 mm
06:04 35.4 °F /  1.9 °C 34.6 °F /  1.4 °C 30.01 in /  1016.1 hPa ENE 1.6 mph /  2.6 km/h 3.5 mph /  5.6 km/h 97 % 0.00 in /  0 mm
06:14 35.4 °F /  1.9 °C 34.6 °F /  1.4 °C 30.01 in /  1016.1 hPa NE 0.7 mph /  1.1 km/h 2.3 mph /  3.7 km/h 97 % 0.00 in /  0 mm
06:30 35.5 °F /  1.9 °C 34.7 °F /  1.5 °C 30.01 in /  1016.1 hPa ENE 1.4 mph /  2.3 km/h 3.0 mph /  4.8 km/h 97 % 0.00 in /  0 mm
06:35 35.6 °F /  2 °C 34.8 °F /  1.6 °C 30.01 in /  1016.1 hPa ENE 1.9 mph /  3.1 km/h 3.5 mph /  5.6 km/h 97 % 0.00 in /  0 mm
06:41 35.6 °F /  2 °C 34.8 °F /  1.6 °C 30.01 in /  1016.1 hPa ENE 3.6 mph /  5.8 km/h 4.6 mph /  7.4 km/h 97 % 0.00 in /  0 mm
06:56 35.5 °F /  1.9 °C 34.7 °F /  1.5 °C 30.00 in /  1015.8 hPa ENE 2.6 mph /  4.2 km/h 4.6 mph /  7.4 km/h 97 % 0.00 in /  0 mm
07:05 35.5 °F /  1.9 °C 34.7 °F /  1.5 °C 30.00 in /  1015.8 hPa ENE 5.9 mph /  9.5 km/h 9.2 mph /  14.8 km/h 97 % 0.00 in /  0 mm
07:11 35.4 °F /  1.9 °C 34.6 °F /  1.4 °C 30.00 in /  1015.8 hPa ENE 4.9 mph /  7.9 km/h 7.0 mph /  11.3 km/h 97 % 0.00 in /  0 mm
07:20 35.4 °F /  1.9 °C 34.6 °F /  1.4 °C 30.00 in /  1015.8 hPa ENE 3.7 mph /  6 km/h 4.6 mph /  7.4 km/h 97 % 0.00 in /  0 mm
07:34 35.3 °F /  1.8 °C 34.5 °F /  1.4 °C 30.00 in /  1015.8 hPa East 1.9 mph /  3.1 km/h 3.5 mph /  5.6 km/h 97 % 0.00 in /  0 mm
07:46 35.3 °F /  1.8 °C 34.5 °F /  1.4 °C 29.99 in /  1015.5 hPa ENE 3.8 mph /  6.1 km/h 5.8 mph /  9.3 km/h 97 % 0.00 in /  0 mm
07:54 35.3 °F /  1.8 °C 34.5 °F /  1.4 °C 30.00 in /  1015.8 hPa East 4.0 mph /  6.4 km/h 5.8 mph /  9.3 km/h 97 % 0.00 in /  0 mm
08:01 35.4 °F /  1.9 °C 34.6 °F /  1.4 °C 29.99 in /  1015.5 hPa East 3.2 mph /  5.1 km/h 4.6 mph /  7.4 km/h 97 % 0.00 in /  0 mm
08:21 35.6 °F /  2 °C 34.8 °F /  1.6 °C 29.99 in /  1015.5 hPa East 3.4 mph /  5.5 km/h 5.0 mph /  8 km/h 97 % 0.00 in /  0 mm
08:27 35.5 °F /  1.9 °C 34.7 °F /  1.5 °C 30.00 in /  1015.8 hPa ENE 4.1 mph /  6.6 km/h 5.8 mph /  9.3 km/h 97 % 0.00 in /  0 mm
08:34 35.5 °F /  1.9 °C 34.7 °F /  1.5 °C 30.00 in /  1015.8 hPa East 3.8 mph /  6.1 km/h 5.0 mph /  8 km/h 97 % 0.00 in /  0 mm
08:40 35.5 °F /  1.9 °C 34.7 °F /  1.5 °C 30.00 in /  1015.8 hPa ENE 2.5 mph /  4 km/h 3.5 mph /  5.6 km/h 97 % 0.00 in /  0 mm
08:45 35.5 °F /  1.9 °C 34.7 °F /  1.5 °C 30.00 in /  1015.8 hPa ENE 3.2 mph /  5.1 km/h 3.5 mph /  5.6 km/h 97 % 0.00 in /  0 mm
08:51 35.5 °F /  1.9 °C 34.7 °F /  1.5 °C 30.00 in /  1015.8 hPa ENE 3.8 mph /  6.1 km/h 5.0 mph /  8 km/h 97 % 0.00 in /  0 mm
08:58 35.6 °F /  2 °C 34.8 °F /  1.6 °C 30.00 in /  1015.8 hPa ENE 3.2 mph /  5.1 km/h 4.6 mph /  7.4 km/h 97 % 0.00 in /  0 mm
09:07 35.7 °F /  2.1 °C 34.9 °F /  1.6 °C 30.00 in /  1015.8 hPa ENE 2.2 mph /  3.5 km/h 3.5 mph /  5.6 km/h 97 % 0.00 in /  0 mm
09:15 35.7 °F /  2.1 °C 34.9 °F /  1.6 °C 30.00 in /  1015.8 hPa ENE 2.9 mph /  4.7 km/h 3.5 mph /  5.6 km/h 97 % 0.00 in /  0 mm
09:21 35.8 °F /  2.1 °C 35.0 °F /  1.7 °C 30.00 in /  1015.8 hPa East 3.3 mph /  5.3 km/h 5.0 mph /  8 km/h 97 % 0.01 in /  0.25 mm
09:27 35.8 °F /  2.1 °C 35.0 °F /  1.7 °C 30.00 in /  1015.8 hPa East 2.4 mph /  3.9 km/h 4.6 mph /  7.4 km/h 97 % 0.01 in /  0.25 mm
09:45 35.7 °F /  2.1 °C 34.9 °F /  1.6 °C 30.00 in /  1015.8 hPa East 3.1 mph /  5 km/h 4.6 mph /  7.4 km/h 97 % 0.01 in /  0.25 mm
10:04 35.7 °F /  2.1 °C 34.9 °F /  1.6 °C 30.00 in /  1015.8 hPa NNE 2.6 mph /  4.2 km/h 3.5 mph /  5.6 km/h 97 % 0.01 in /  0.25 mm
10:12 35.8 °F /  2.1 °C 35.0 °F /  1.7 °C 30.00 in /  1015.8 hPa NNE 3.6 mph /  5.8 km/h 4.0 mph /  6.4 km/h 97 % 0.01 in /  0.25 mm
10:23 35.7 °F /  2.1 °C 34.9 °F /  1.6 °C 30.00 in /  1015.8 hPa NNE 4.5 mph /  7.2 km/h 6.0 mph /  9.7 km/h 97 % 0.00 in /  0 mm
10:28 35.6 °F /  2 °C 34.8 °F /  1.6 °C 30.00 in /  1015.8 hPa North 3.2 mph /  5.1 km/h 5.0 mph /  8 km/h 97 % 0.01 in /  0.25 mm
10:36 35.5 °F /  1.9 °C 34.7 °F /  1.5 °C 30.00 in /  1015.8 hPa NNW 2.2 mph /  3.5 km/h 3.5 mph /  5.6 km/h 97 % 0.01 in /  0.25 mm
10:41 35.4 °F /  1.9 °C 34.6 °F /  1.4 °C 30.00 in /  1015.8 hPa NNE 2.3 mph /  3.7 km/h 4.0 mph /  6.4 km/h 97 % 0.01 in /  0.25 mm
10:49 35.2 °F /  1.8 °C 34.4 °F /  1.3 °C 30.00 in /  1015.8 hPa North 3.4 mph /  5.5 km/h 5.8 mph /  9.3 km/h 97 % 0.01 in /  0.25 mm
10:56 35.1 °F /  1.7 °C 34.3 °F /  1.3 °C 30.00 in /  1015.8 hPa NNW 0.9 mph /  1.4 km/h 3.5 mph /  5.6 km/h 97 % 0.01 in /  0.25 mm
11:06 34.9 °F /  1.6 °C 34.1 °F /  1.2 °C 29.99 in /  1015.5 hPa NW 1.0 mph /  1.6 km/h 5.0 mph /  8 km/h 97 % 0.00 in /  0 mm
11:13 34.8 °F /  1.6 °C 34.0 °F /  1.1 °C 29.99 in /  1015.5 hPa NW 1.7 mph /  2.7 km/h 3.5 mph /  5.6 km/h 97 % 0.01 in /  0.25 mm
11:29 34.8 °F /  1.6 °C 34.0 °F /  1.1 °C 29.98 in /  1015.1 hPa NW 3.2 mph /  5.1 km/h 4.6 mph /  7.4 km/h 97 % 0.00 in /  0 mm
11:49 34.8 °F /  1.6 °C 34.0 °F /  1.1 °C 29.97 in /  1014.8 hPa WNW 2.8 mph /  4.5 km/h 4.6 mph /  7.4 km/h 97 % 0.00 in /  0 mm
11:56 34.8 °F /  1.6 °C 34.0 °F /  1.1 °C 29.97 in /  1014.8 hPa WNW 0.2 mph /  0.3 km/h 3.5 mph /  5.6 km/h 97 % 0.00 in /  0 mm
12:08 34.9 °F /  1.6 °C 34.1 °F /  1.2 °C 29.95 in /  1014.1 hPa WNW 1.1 mph /  1.8 km/h 3.5 mph /  5.6 km/h 97 % 0.01 in /  0.25 mm
12:16 35.0 °F /  1.7 °C 34.2 °F /  1.2 °C 29.95 in /  1014.1 hPa WNW 1.8 mph /  2.9 km/h 3.5 mph /  5.6 km/h 97 % 0.01 in /  0.25 mm
12:49 34.8 °F /  1.6 °C 34.0 °F /  1.1 °C 29.94 in /  1013.8 hPa West 4.2 mph /  6.8 km/h 5.8 mph /  9.3 km/h 97 % 0.01 in /  0.25 mm
13:14 34.4 °F /  1.3 °C 33.6 °F /  0.9 °C 29.94 in /  1013.8 hPa WNW 2.1 mph /  3.4 km/h 3.5 mph /  5.6 km/h 97 % 0.00 in /  0 mm
13:19 34.3 °F /  1.3 °C 33.5 °F /  0.8 °C 29.93 in /  1013.4 hPa WNW 3.8 mph /  6.1 km/h 6.9 mph /  11.1 km/h 97 % 0.00 in /  0 mm
13:26 34.2 °F /  1.2 °C 33.4 °F /  0.8 °C 29.93 in /  1013.4 hPa West 3.2 mph /  5.1 km/h 9.2 mph /  14.8 km/h 97 % 0.00 in /  0 mm
13:43 33.9 °F /  1.1 °C 33.1 °F /  0.6 °C 29.92 in /  1013.1 hPa West 1.2 mph /  1.9 km/h 3.5 mph /  5.6 km/h 97 % 0.00 in /  0 mm
13:50 33.8 °F /  1 °C 33.0 °F /  0.6 °C 29.92 in /  1013.1 hPa West 1.5 mph /  2.4 km/h 8.1 mph /  13 km/h 97 % 0.00 in /  0 mm
14:04 33.6 °F /  0.9 °C 32.8 °F /  0.4 °C 29.91 in /  1012.8 hPa WNW 3.6 mph /  5.8 km/h 8.1 mph /  13 km/h 97 % 0.00 in /  0 mm
14:16 33.6 °F /  0.9 °C 32.8 °F /  0.4 °C 29.91 in /  1012.8 hPa WNW 0.6 mph /  1 km/h 3.5 mph /  5.6 km/h 97 % 0.01 in /  0.25 mm
14:21 33.6 °F /  0.9 °C 32.8 °F /  0.4 °C 29.92 in /  1013.1 hPa WNW 4.1 mph /  6.6 km/h 6.9 mph /  11.1 km/h 97 % 0.01 in /  0.25 mm
14:40 33.6 °F /  0.9 °C 32.8 °F /  0.4 °C 29.92 in /  1013.1 hPa West 1.0 mph /  1.6 km/h 4.0 mph /  6.4 km/h 97 % 0.01 in /  0.25 mm
14:45 33.6 °F /  0.9 °C 32.8 °F /  0.4 °C 29.91 in /  1012.8 hPa WNW 2.4 mph /  3.9 km/h 3.5 mph /  5.6 km/h 97 % 0.01 in /  0.25 mm
14:50 33.6 °F /  0.9 °C 32.8 °F /  0.4 °C 29.91 in /  1012.8 hPa WNW 0.7 mph /  1.1 km/h 1.2 mph /  1.9 km/h 97 % 0.01 in /  0.25 mm
14:55 33.7 °F /  0.9 °C 32.9 °F /  0.5 °C 29.91 in /  1012.8 hPa WNW 2.9 mph /  4.7 km/h 4.6 mph /  7.4 km/h 97 % 0.01 in /  0.25 mm
15:00 33.7 °F /  0.9 °C 32.9 °F /  0.5 °C 29.91 in /  1012.8 hPa WNW 2.3 mph /  3.7 km/h 3.5 mph /  5.6 km/h 97 % 0.01 in /  0.25 mm
15:06 33.6 °F /  0.9 °C 32.9 °F /  0.5 °C 29.91 in /  1012.8 hPa WNW 3.0 mph /  4.8 km/h 6.0 mph /  9.7 km/h 97 % 0.00 in /  0 mm
15:11 33.7 °F /  0.9 °C 32.9 °F /  0.5 °C 29.91 in /  1012.8 hPa WNW 2.2 mph /  3.5 km/h 3.5 mph /  5.6 km/h 97 % 0.00 in /  0 mm
15:16 33.7 °F /  0.9 °C 32.9 °F /  0.5 °C 29.91 in /  1012.8 hPa WNW 1.0 mph /  1.6 km/h 4.0 mph /  6.4 km/h 97 % 0.00 in /  0 mm
15:20 33.7 °F /  0.9 °C 32.9 °F /  0.5 °C 29.91 in /  1012.8 hPa NW 1.8 mph /  2.9 km/h 4.0 mph /  6.4 km/h 97 % 0.00 in /  0 mm
15:25 33.7 °F /  0.9 °C 32.9 °F /  0.5 °C 29.91 in /  1012.8 hPa NW 1.2 mph /  1.9 km/h 5.0 mph /  8 km/h 97 % 0.00 in /  0 mm
15:31 33.7 °F /  0.9 °C 32.9 °F /  0.5 °C 29.91 in /  1012.8 hPa WNW 4.4 mph /  7.1 km/h 5.0 mph /  8 km/h 97 % 0.00 in /  0 mm
15:36 33.7 °F /  0.9 °C 32.9 °F /  0.5 °C 29.91 in /  1012.8 hPa NW 3.2 mph /  5.1 km/h 6.0 mph /  9.7 km/h 97 % 0.00 in /  0 mm
15:38 33.7 °F /  0.9 °C 32.9 °F /  0.5 °C 29.92 in /  1013.1 hPa WNW 4.7 mph /  7.6 km/h 9.2 mph /  14.8 km/h 97 % 0.00 in /  0 mm
15:41 33.7 °F /  0.9 °C 32.9 °F /  0.5 °C 29.92 in /  1013.1 hPa NW 2.0 mph /  3.2 km/h 5.8 mph /  9.3 km/h 97 % 0.00 in /  0 mm
15:46 33.6 °F /  0.9 °C 32.8 °F /  0.4 °C 29.92 in /  1013.1 hPa WNW 2.7 mph /  4.3 km/h 5.8 mph /  9.3 km/h 97 % 0.00 in /  0 mm
15:48 33.6 °F /  0.9 °C 32.8 °F /  0.4 °C 29.91 in /  1012.8 hPa WNW 3.3 mph /  5.3 km/h 6.0 mph /  9.7 km/h 97 % 0.00 in /  0 mm
15:53 33.6 °F /  0.9 °C 32.8 °F /  0.4 °C 29.92 in /  1013.1 hPa WNW 3.4 mph /  5.5 km/h 5.8 mph /  9.3 km/h 97 % 0.00 in /  0 mm
15:58 33.5 °F /  0.8 °C 32.7 °F /  0.4 °C 29.92 in /  1013.1 hPa WNW 2.6 mph /  4.2 km/h 4.0 mph /  6.4 km/h 97 % 0.00 in /  0 mm
16:03 33.5 °F /  0.8 °C 32.7 °F /  0.4 °C 29.92 in /  1013.1 hPa WNW 2.0 mph /  3.2 km/h 5.8 mph /  9.3 km/h 97 % 0.00 in /  0 mm
16:05 33.5 °F /  0.8 °C 32.7 °F /  0.4 °C 29.92 in /  1013.1 hPa WNW 2.1 mph /  3.4 km/h 5.8 mph /  9.3 km/h 97 % 0.00 in /  0 mm
16:10 33.5 °F /  0.8 °C 32.7 °F /  0.4 °C 29.92 in /  1013.1 hPa West 1.7 mph /  2.7 km/h 3.5 mph /  5.6 km/h 97 % 0.00 in /  0 mm
16:11 33.5 °F /  0.8 °C 32.7 °F /  0.4 °C 29.92 in /  1013.1 hPa WNW 1.0 mph /  1.6 km/h 5.0 mph /  8 km/h 97 % 0.00 in /  0 mm
16:15 33.5 °F /  0.8 °C 32.7 °F /  0.4 °C 29.91 in /  1012.8 hPa West 1.2 mph /  1.9 km/h 3.5 mph /  5.6 km/h 97 % 0.00 in /  0 mm
16:19 33.4 °F /  0.8 °C 32.6 °F /  0.3 °C 29.91 in /  1012.8 hPa WNW 2.0 mph /  3.2 km/h 3.5 mph /  5.6 km/h 97 % 0.00 in /  0 mm
16:20 33.4 °F /  0.8 °C 32.6 °F /  0.3 °C 29.91 in /  1012.8 hPa WNW 2.7 mph /  4.3 km/h 4.6 mph /  7.4 km/h 97 % 0.00 in /  0 mm
16:21 33.4 °F /  0.8 °C 32.6 °F /  0.3 °C 29.91 in /  1012.8 hPa WNW 1.6 mph /  2.6 km/h 4.6 mph /  7.4 km/h 97 % 0.00 in /  0 mm
16:23 33.4 °F /  0.8 °C 32.6 °F /  0.3 °C 29.91 in /  1012.8 hPa West 2.1 mph /  3.4 km/h 4.6 mph /  7.4 km/h 97 % 0.00 in /  0 mm
16:26 33.4 °F /  0.8 °C 32.6 °F /  0.3 °C 29.91 in /  1012.8 hPa WNW 2.7 mph /  4.3 km/h 5.8 mph /  9.3 km/h 97 % 0.00 in /  0 mm
16:28 33.4 °F /  0.8 °C 32.6 °F /  0.3 °C 29.91 in /  1012.8 hPa WNW 3.9 mph /  6.3 km/h 8.1 mph /  13 km/h 97 % 0.00 in /  0 mm
16:29 33.4 °F /  0.8 °C 32.6 °F /  0.3 °C 29.91 in /  1012.8 hPa WNW 3.1 mph /  5 km/h 6.9 mph /  11.1 km/h 97 % 0.00 in /  0 mm
16:30 33.4 °F /  0.8 °C 32.6 °F /  0.3 °C 29.91 in /  1012.8 hPa West 3.8 mph /  6.1 km/h 5.8 mph /  9.3 km/h 97 % 0.00 in /  0 mm
16:33 33.3 °F /  0.7 °C 32.5 °F /  0.3 °C 29.91 in /  1012.8 hPa WNW 2.7 mph /  4.3 km/h 6.9 mph /  11.1 km/h 97 % 0.00 in /  0 mm
16:35 33.3 °F /  0.7 °C 32.5 °F /  0.3 °C 29.91 in /  1012.8 hPa NNW 5.6 mph /  9 km/h 10.4 mph /  16.7 km/h 97 % 0.00 in /  0 mm
16:40 33.2 °F /  0.7 °C 32.4 °F /  0.2 °C 29.91 in /  1012.8 hPa NNW 4.7 mph /  7.6 km/h 11.0 mph /  17.7 km/h 97 % 0.00 in /  0 mm
16:41 33.2 °F /  0.7 °C 32.4 °F /  0.2 °C 29.91 in /  1012.8 hPa WNW 5.0 mph /  8 km/h 7.0 mph /  11.3 km/h 97 % 0.00 in /  0 mm
16:46 33.2 °F /  0.7 °C 32.4 °F /  0.2 °C 29.90 in /  1012.4 hPa NW 3.6 mph /  5.8 km/h 5.8 mph /  9.3 km/h 97 % 0.00 in /  0 mm
16:51 33.2 °F /  0.7 °C 32.2 °F /  0.1 °C 29.90 in /  1012.4 hPa WNW 6.0 mph /  9.7 km/h 12.0 mph /  19.3 km/h 96 % 0.00 in /  0 mm
16:55 33.2 °F /  0.7 °C 32.2 °F /  0.1 °C 29.90 in /  1012.4 hPa NW 4.9 mph /  7.9 km/h 8.1 mph /  13 km/h 96 % 0.00 in /  0 mm
17:00 33.1 °F /  0.6 °C 32.1 °F /  0.1 °C 29.90 in /  1012.4 hPa WNW 4.0 mph /  6.4 km/h 6.0 mph /  9.7 km/h 96 % 0.00 in /  0 mm
17:05 33.2 °F /  0.7 °C 32.2 °F /  0.1 °C 29.90 in /  1012.4 hPa NW 4.4 mph /  7.1 km/h 8.1 mph /  13 km/h 96 % 0.00 in /  0 mm
17:10 33.2 °F /  0.7 °C 32.2 °F /  0.1 °C 29.90 in /  1012.4 hPa West 6.2 mph /  10 km/h 8.1 mph /  13 km/h 96 % 0.00 in /  0 mm
17:15 33.1 °F /  0.6 °C 32.1 °F /  0.1 °C 29.90 in /  1012.4 hPa WNW 4.0 mph /  6.4 km/h 8.0 mph /  12.9 km/h 96 % 0.00 in /  0 mm
17:20 32.9 °F /  0.5 °C 31.9 °F /  -0.1 °C 29.90 in /  1012.4 hPa WNW 3.9 mph /  6.3 km/h 8.1 mph /  13 km/h 96 % 0.00 in /  0 mm
17:25 32.7 °F /  0.4 °C 31.4 °F /  -0.3 °C 29.90 in /  1012.4 hPa WNW 3.8 mph /  6.1 km/h 8.1 mph /  13 km/h 95 % 0.00 in /  0 mm
17:30 32.5 °F /  0.3 °C 31.2 °F /  -0.4 °C 29.91 in /  1012.8 hPa West 3.3 mph /  5.3 km/h 11.5 mph /  18.5 km/h 95 % 0.00 in /  0 mm
17:31 32.4 °F /  0.2 °C 31.1 °F /  -0.5 °C 29.90 in /  1012.4 hPa West 3.9 mph /  6.3 km/h 6.9 mph /  11.1 km/h 95 % 0.00 in /  0 mm
17:36 32.2 °F /  0.1 °C 30.9 °F /  -0.6 °C 29.90 in /  1012.4 hPa WNW 5.4 mph /  8.7 km/h 10.4 mph /  16.7 km/h 95 % 0.00 in /  0 mm
17:41 32.0 °F /  0 °C 30.5 °F /  -0.8 °C 29.90 in /  1012.4 hPa West 3.5 mph /  5.6 km/h 6.9 mph /  11.1 km/h 94 % 0.00 in /  0 mm
17:46 31.9 °F /  -0.1 °C 30.4 °F /  -0.9 °C 29.90 in /  1012.4 hPa WNW 5.6 mph /  9 km/h 8.0 mph /  12.9 km/h 94 % 0.00 in /  0 mm
17:51 31.7 °F /  -0.2 °C 30.2 °F /  -1 °C 29.91 in /  1012.8 hPa WSW 4.9 mph /  7.9 km/h 9.2 mph /  14.8 km/h 94 % 0.00 in /  0 mm
17:56 31.6 °F /  -0.2 °C 30.1 °F /  -1.1 °C 29.91 in /  1012.8 hPa NW 4.4 mph /  7.1 km/h 12.7 mph /  20.4 km/h 94 % 0.00 in /  0 mm
18:01 31.5 °F /  -0.3 °C 30.0 °F /  -1.1 °C 29.91 in /  1012.8 hPa WSW 8.0 mph /  12.9 km/h 12.7 mph /  20.4 km/h 94 % 0.00 in /  0 mm
18:06 31.4 °F /  -0.3 °C 29.9 °F /  -1.2 °C 29.91 in /  1012.8 hPa WNW 7.3 mph /  11.7 km/h 9.2 mph /  14.8 km/h 94 % 0.00 in /  0 mm
18:11 31.2 °F /  -0.4 °C 29.4 °F /  -1.4 °C 29.91 in /  1012.8 hPa WSW 3.4 mph /  5.5 km/h 8.1 mph /  13 km/h 93 % 0.00 in /  0 mm
18:17 31.2 °F /  -0.4 °C 29.4 °F /  -1.4 °C 29.91 in /  1012.8 hPa West 5.2 mph /  8.4 km/h 11.5 mph /  18.5 km/h 93 % 0.00 in /  0 mm
18:22 31.2 °F /  -0.4 °C 29.4 °F /  -1.4 °C 29.92 in /  1013.1 hPa NW 5.5 mph /  8.9 km/h 11.5 mph /  18.5 km/h 93 % 0.00 in /  0 mm
18:27 31.1 °F /  -0.5 °C 29.3 °F /  -1.5 °C 29.92 in /  1013.1 hPa West 5.5 mph /  8.9 km/h 9.2 mph /  14.8 km/h 93 % 0.00 in /  0 mm
18:32 31.1 °F /  -0.5 °C 29.3 °F /  -1.5 °C 29.92 in /  1013.1 hPa WNW 2.2 mph /  3.5 km/h 8.1 mph /  13 km/h 93 % 0.00 in /  0 mm
18:37 31.0 °F /  -0.6 °C 29.2 °F /  -1.6 °C 29.92 in /  1013.1 hPa WNW 5.4 mph /  8.7 km/h 9.2 mph /  14.8 km/h 93 % 0.00 in /  0 mm
18:42 31.0 °F /  -0.6 °C 29.2 °F /  -1.6 °C 29.91 in /  1012.8 hPa West 6.5 mph /  10.5 km/h 11.5 mph /  18.5 km/h 93 % 0.00 in /  0 mm
18:47 31.0 °F /  -0.6 °C 29.2 °F /  -1.6 °C 29.91 in /  1012.8 hPa NW 5.0 mph /  8 km/h 9.2 mph /  14.8 km/h 93 % 0.00 in /  0 mm
18:52 30.9 °F /  -0.6 °C 28.9 °F /  -1.7 °C 29.91 in /  1012.8 hPa NNW 4.8 mph /  7.7 km/h 7.0 mph /  11.3 km/h 92 % 0.00 in /  0 mm
18:57 30.9 °F /  -0.6 °C 28.9 °F /  -1.7 °C 29.91 in /  1012.8 hPa WNW 4.4 mph /  7.1 km/h 8.1 mph /  13 km/h 92 % 0.00 in /  0 mm
19:02 30.8 °F /  -0.7 °C 28.8 °F /  -1.8 °C 29.91 in /  1012.8 hPa West 4.5 mph /  7.2 km/h 6.9 mph /  11.1 km/h 92 % 0.00 in /  0 mm
19:07 30.8 °F /  -0.7 °C 28.8 °F /  -1.8 °C 29.90 in /  1012.4 hPa NW 6.8 mph /  10.9 km/h 10.4 mph /  16.7 km/h 92 % 0.00 in /  0 mm
19:12 30.7 °F /  -0.7 °C 28.4 °F /  -2 °C 29.91 in /  1012.8 hPa WNW 4.5 mph /  7.2 km/h 11.5 mph /  18.5 km/h 91 % 0.00 in /  0 mm
19:17 30.6 °F /  -0.8 °C 28.3 °F /  -2.1 °C 29.90 in /  1012.4 hPa NW 4.7 mph /  7.6 km/h 5.8 mph /  9.3 km/h 91 % 0.00 in /  0 mm
19:22 30.6 °F /  -0.8 °C 28.3 °F /  -2.1 °C 29.90 in /  1012.4 hPa WNW 4.9 mph /  7.9 km/h 8.1 mph /  13 km/h 91 % 0.00 in /  0 mm
19:27 30.5 °F /  -0.8 °C 28.2 °F /  -2.1 °C 29.90 in /  1012.4 hPa NNW 3.9 mph /  6.3 km/h 11.5 mph /  18.5 km/h 91 % 0.00 in /  0 mm
19:32 30.4 °F /  -0.9 °C 28.1 °F /  -2.2 °C 29.90 in /  1012.4 hPa NW 6.2 mph /  10 km/h 9.2 mph /  14.8 km/h 91 % 0.00 in /  0 mm
19:37 30.4 °F /  -0.9 °C 27.8 °F /  -2.3 °C 29.90 in /  1012.4 hPa WNW 4.0 mph /  6.4 km/h 10.4 mph /  16.7 km/h 90 % 0.00 in /  0 mm
19:42 30.3 °F /  -0.9 °C 27.7 °F /  -2.4 °C 29.91 in /  1012.8 hPa NW 3.6 mph /  5.8 km/h 6.9 mph /  11.1 km/h 90 % 0.00 in /  0 mm
19:45 30.3 °F /  -0.9 °C 27.7 °F /  -2.4 °C 29.91 in /  1012.8 hPa NW 4.1 mph /  6.6 km/h 9.2 mph /  14.8 km/h 90 % 0.00 in /  0 mm
19:50 30.2 °F /  -1 °C 27.6 °F /  -2.4 °C 29.91 in /  1012.8 hPa WNW 2.2 mph /  3.5 km/h 5.0 mph /  8 km/h 90 % 0.00 in /  0 mm
19:55 30.2 °F /  -1 °C 27.6 °F /  -2.4 °C 29.91 in /  1012.8 hPa NW 4.6 mph /  7.4 km/h 6.0 mph /  9.7 km/h 90 % 0.00 in /  0 mm
20:00 30.1 °F /  -1.1 °C 27.5 °F /  -2.5 °C 29.90 in /  1012.4 hPa North 4.8 mph /  7.7 km/h 6.9 mph /  11.1 km/h 90 % 0.00 in /  0 mm
20:05 30.1 °F /  -1.1 °C 27.5 °F /  -2.5 °C 29.90 in /  1012.4 hPa WNW 1.2 mph /  1.9 km/h 4.6 mph /  7.4 km/h 90 % 0.00 in /  0 mm
20:10 30.1 °F /  -1.1 °C 27.5 °F /  -2.5 °C 29.91 in /  1012.8 hPa NNW 2.9 mph /  4.7 km/h 8.1 mph /  13 km/h 90 % 0.00 in /  0 mm
20:15 30.1 °F /  -1.1 °C 27.5 °F /  -2.5 °C 29.91 in /  1012.8 hPa NNW 1.7 mph /  2.7 km/h 8.1 mph /  13 km/h 90 % 0.00 in /  0 mm
20:20 30.1 °F /  -1.1 °C 27.8 °F /  -2.3 °C 29.92 in /  1013.1 hPa WNW 3.8 mph /  6.1 km/h 7.0 mph /  11.3 km/h 91 % 0.00 in /  0 mm
20:25 30.1 °F /  -1.1 °C 27.5 °F /  -2.5 °C 29.91 in /  1012.8 hPa NW 4.9 mph /  7.9 km/h 8.1 mph /  13 km/h 90 % 0.00 in /  0 mm
20:30 30.0 °F /  -1.1 °C 27.4 °F /  -2.6 °C 29.91 in /  1012.8 hPa NNW 2.2 mph /  3.5 km/h 9.2 mph /  14.8 km/h 90 % 0.00 in /  0 mm
20:35 30.0 °F /  -1.1 °C 27.4 °F /  -2.6 °C 29.91 in /  1012.8 hPa NE 5.9 mph /  9.5 km/h 5.9 mph /  9.5 km/h 90 % 0.00 in /  0 mm
20:40 29.9 °F /  -1.2 °C 27.1 °F /  -2.7 °C 29.91 in /  1012.8 hPa NNW 5.5 mph /  8.9 km/h 7.0 mph /  11.3 km/h 89 % 0.00 in /  0 mm
20:45 29.8 °F /  -1.2 °C 27.0 °F /  -2.8 °C 29.92 in /  1013.1 hPa NNW 6.0 mph /  9.7 km/h 9.0 mph /  14.5 km/h 89 % 0.00 in /  0 mm
20:50 29.7 °F /  -1.3 °C 26.6 °F /  -3 °C 29.91 in /  1012.8 hPa NNW 5.0 mph /  8 km/h 8.0 mph /  12.9 km/h 88 % 0.00 in /  0 mm
20:55 29.7 °F /  -1.3 °C 26.6 °F /  -3 °C 29.91 in /  1012.8 hPa NNW 2.0 mph /  3.2 km/h 7.0 mph /  11.3 km/h 88 % 0.00 in /  0 mm
21:01 29.7 °F /  -1.3 °C 26.6 °F /  -3 °C 29.91 in /  1012.8 hPa NW 3.9 mph /  6.3 km/h 5.8 mph /  9.3 km/h 88 % 0.00 in /  0 mm
21:06 29.6 °F /  -1.3 °C 26.5 °F /  -3.1 °C 29.92 in /  1013.1 hPa NW 4.7 mph /  7.6 km/h 10.0 mph /  16.1 km/h 88 % 0.00 in /  0 mm
21:11 29.5 °F /  -1.4 °C 26.4 °F /  -3.1 °C 29.91 in /  1012.8 hPa NW 3.9 mph /  6.3 km/h 8.1 mph /  13 km/h 88 % 0.00 in /  0 mm
21:16 29.5 °F /  -1.4 °C 26.1 °F /  -3.3 °C 29.91 in /  1012.8 hPa NW 2.2 mph /  3.5 km/h 8.1 mph /  13 km/h 87 % 0.00 in /  0 mm
21:21 29.4 °F /  -1.4 °C 26.0 °F /  -3.3 °C 29.91 in /  1012.8 hPa NW 1.5 mph /  2.4 km/h 3.5 mph /  5.6 km/h 87 % 0.00 in /  0 mm
21:26 29.4 °F /  -1.4 °C 26.3 °F /  -3.2 °C 29.91 in /  1012.8 hPa NNW 4.0 mph /  6.4 km/h 6.9 mph /  11.1 km/h 88 % 0.00 in /  0 mm
21:31 29.3 °F /  -1.5 °C 26.2 °F /  -3.2 °C 29.92 in /  1013.1 hPa NNW 3.3 mph /  5.3 km/h 5.0 mph /  8 km/h 88 % 0.00 in /  0 mm
21:36 29.3 °F /  -1.5 °C 25.9 °F /  -3.4 °C 29.91 in /  1012.8 hPa NNW 3.2 mph /  5.1 km/h 5.8 mph /  9.3 km/h 87 % 0.00 in /  0 mm
21:41 29.2 °F /  -1.6 °C 25.8 °F /  -3.4 °C 29.91 in /  1012.8 hPa NNW 4.1 mph /  6.6 km/h 6.9 mph /  11.1 km/h 87 % 0.00 in /  0 mm
21:46 29.1 °F /  -1.6 °C 25.7 °F /  -3.5 °C 29.91 in /  1012.8 hPa WNW 4.5 mph /  7.2 km/h 6.9 mph /  11.1 km/h 87 % 0.00 in /  0 mm
21:51 28.9 °F /  -1.7 °C 25.2 °F /  -3.8 °C 29.92 in /  1013.1 hPa NNW 4.4 mph /  7.1 km/h 6.0 mph /  9.7 km/h 86 % 0.00 in /  0 mm
21:56 28.8 °F /  -1.8 °C 25.1 °F /  -3.8 °C 29.92 in /  1013.1 hPa NW 3.9 mph /  6.3 km/h 7.0 mph /  11.3 km/h 86 % 0.00 in /  0 mm
22:01 28.8 °F /  -1.8 °C 25.1 °F /  -3.8 °C 29.92 in /  1013.1 hPa WNW 4.4 mph /  7.1 km/h 8.0 mph /  12.9 km/h 86 % 0.00 in /  0 mm
22:06 28.7 °F /  -1.8 °C 24.8 °F /  -4 °C 29.91 in /  1012.8 hPa NW 3.1 mph /  5 km/h 6.9 mph /  11.1 km/h 85 % 0.00 in /  0 mm
22:11 28.7 °F /  -1.8 °C 24.8 °F /  -4 °C 29.92 in /  1013.1 hPa NW 1.8 mph /  2.9 km/h 4.6 mph /  7.4 km/h 85 % 0.00 in /  0 mm
22:16 28.5 °F /  -1.9 °C 24.6 °F /  -4.1 °C 29.92 in /  1013.1 hPa NNW 3.2 mph /  5.1 km/h 9.2 mph /  14.8 km/h 85 % 0.00 in /  0 mm
22:21 28.4 °F /  -2 °C 24.2 °F /  -4.3 °C 29.91 in /  1012.8 hPa NNW 2.7 mph /  4.3 km/h 11.5 mph /  18.5 km/h 84 % 0.00 in /  0 mm
22:27 28.3 °F /  -2.1 °C 24.1 °F /  -4.4 °C 29.90 in /  1012.4 hPa NNW 4.7 mph /  7.6 km/h 6.9 mph /  11.1 km/h 84 % 0.00 in /  0 mm
22:28 28.3 °F /  -2.1 °C 24.1 °F /  -4.4 °C 29.91 in /  1012.8 hPa NW 4.6 mph /  7.4 km/h 6.9 mph /  11.1 km/h 84 % 0.00 in /  0 mm
22:33 28.1 °F /  -2.2 °C 23.9 °F /  -4.5 °C 29.92 in /  1013.1 hPa NNW 2.3 mph /  3.7 km/h 5.8 mph /  9.3 km/h 84 % 0.00 in /  0 mm
22:38 28.0 °F /  -2.2 °C 23.5 °F /  -4.7 °C 29.92 in /  1013.1 hPa NNW 5.5 mph /  8.9 km/h 10.4 mph /  16.7 km/h 83 % 0.00 in /  0 mm
22:43 27.9 °F /  -2.3 °C 23.4 °F /  -4.8 °C 29.91 in /  1012.8 hPa NNE 4.3 mph /  6.9 km/h 6.9 mph /  11.1 km/h 83 % 0.00 in /  0 mm
22:48 27.7 °F /  -2.4 °C 23.2 °F /  -4.9 °C 29.91 in /  1012.8 hPa NNE 9.2 mph /  14.8 km/h 12.7 mph /  20.4 km/h 83 % 0.00 in /  0 mm
22:53 27.5 °F /  -2.5 °C 22.7 °F /  -5.2 °C 29.91 in /  1012.8 hPa NNE 6.7 mph /  10.8 km/h 9.2 mph /  14.8 km/h 82 % 0.00 in /  0 mm
22:58 27.3 °F /  -2.6 °C 22.5 °F /  -5.3 °C 29.91 in /  1012.8 hPa North 7.5 mph /  12.1 km/h 9.2 mph /  14.8 km/h 82 % 0.00 in /  0 mm
23:03 27.1 °F /  -2.7 °C 22.3 °F /  -5.4 °C 29.92 in /  1013.1 hPa NNE 6.3 mph /  10.1 km/h 13.0 mph /  20.9 km/h 82 % 0.00 in /  0 mm
23:08 26.8 °F /  -2.9 °C 22.0 °F /  -5.6 °C 29.91 in /  1012.8 hPa North 7.0 mph /  11.3 km/h 12.0 mph /  19.3 km/h 82 % 0.00 in /  0 mm
23:14 26.6 °F /  -3 °C 21.6 °F /  -5.8 °C 29.91 in /  1012.8 hPa NNE 7.4 mph /  11.9 km/h 13.8 mph /  22.2 km/h 81 % 0.00 in /  0 mm
23:19 26.4 °F /  -3.1 °C 21.4 °F /  -5.9 °C 29.91 in /  1012.8 hPa North 6.8 mph /  10.9 km/h 9.2 mph /  14.8 km/h 81 % 0.00 in /  0 mm
23:24 26.3 °F /  -3.2 °C 21.6 °F /  -5.8 °C 29.91 in /  1012.8 hPa NNW 3.6 mph /  5.8 km/h 6.9 mph /  11.1 km/h 82 % 0.00 in /  0 mm
23:29 26.2 °F /  -3.2 °C 21.7 °F /  -5.7 °C 29.91 in /  1012.8 hPa North 3.6 mph /  5.8 km/h 6.9 mph /  11.1 km/h 83 % 0.00 in /  0 mm
23:34 26.1 °F /  -3.3 °C 21.6 °F /  -5.8 °C 29.90 in /  1012.4 hPa North 2.5 mph /  4 km/h 8.1 mph /  13 km/h 83 % 0.00 in /  0 mm
23:39 26.1 °F /  -3.3 °C 21.6 °F /  -5.8 °C 29.91 in /  1012.8 hPa North 5.6 mph /  9 km/h 9.2 mph /  14.8 km/h 83 % 0.00 in /  0 mm
23:44 25.9 °F /  -3.4 °C 21.2 °F /  -6 °C 29.90 in /  1012.4 hPa NNE 8.9 mph /  14.3 km/h 11.5 mph /  18.5 km/h 82 % 0.00 in /  0 mm
23:49 25.6 °F /  -3.6 °C 20.6 °F /  -6.3 °C 29.90 in /  1012.4 hPa NNE 5.3 mph /  8.5 km/h 6.9 mph /  11.1 km/h 81 % 0.00 in /  0 mm
23:54 25.6 °F /  -3.6 °C 20.3 °F /  -6.5 °C 29.89 in /  1012.1 hPa NNE 4.7 mph /  7.6 km/h 8.1 mph /  13 km/h 80 % 0.00 in /  0 mm
23:59 25.3 °F /  -3.7 °C 20.3 °F /  -6.5 °C 29.89 in /  1012.1 hPa North 3.5 mph /  5.6 km/h 6.9 mph /  11.1 km/h 81 % 0.00 in /  0 mm
Crab Meadow Weather
Compliments of Weather Underground - 2.5 mb

Script developed by  Jim McMurry - jmcmurry@mwt.net Adapted for the template by  Wim van der Kuil - Leuven-Template.eu

Extremes: The heaviest hailstones on record, weighing up to 2.25 pounds were reported to have killed 92 people in the Gopalganj district of Bangladesh on April 14, 1986.